Time;durP1;ratioP1;P1;durP2;ratioP2;P2;SDS_P1;SDS_P2;PMS_P1;PMS_P2;Temp;Humidity;BMP_temperature;BMP_pressure;BME280_temperature;BME280_humidity;BME280_pressure;Samples;Min_cycle;Max_cycle;Signal;HPM_P1;HPM_P2
2024/04/06 00:00:32;;;;;;;7.25;4.32;;;;;;;15.02;54.36;100331.47;5080690;28;20506;-64
2024/04/06 00:02:57;;;;;;;8.05;4.60;;;;;;;15.01;54.27;100325.31;5079301;28;20047;-64
2024/04/06 00:05:23;;;;;;;7.20;4.18;;;;;;;14.99;54.47;100327.34;5081025;28;20102;-64
2024/04/06 00:07:49;;;;;;;9.43;4.55;;;;;;;15.04;54.38;100329.47;5079397;28;20103;-64
2024/04/06 00:10:15;;;;;;;9.40;4.53;;;;;;;14.98;54.26;100338.19;5079793;28;20040;-63
2024/04/06 00:12:40;;;;;;;7.65;4.35;;;;;;;14.79;54.96;100341.28;5078836;28;20040;-64
2024/04/06 00:15:06;;;;;;;8.85;4.80;;;;;;;14.70;55.14;100335.16;5079907;28;20036;-64
2024/04/06 00:17:32;;;;;;;8.57;4.35;;;;;;;14.61;55.84;100334.38;5078778;28;20074;-64
2024/04/06 00:19:58;;;;;;;11.55;4.43;;;;;;;14.66;55.92;100334.69;5080714;28;20130;-63
2024/04/06 00:22:23;;;;;;;9.75;5.45;;;;;;;14.74;55.55;100343.66;5078569;28;20327;-65
2024/04/06 00:24:49;;;;;;;5.93;4.20;;;;;;;14.79;55.08;100349.28;5079288;28;20024;-64
2024/04/06 00:27:14;;;;;;;8.20;4.53;;;;;;;14.72;55.26;100350.97;5079163;28;20066;-63
2024/04/06 00:29:40;;;;;;;5.97;4.20;;;;;;;14.83;54.94;100354.09;5078797;28;20036;-64
2024/04/06 00:32:06;;;;;;;7.18;4.75;;;;;;;14.68;55.20;100364.66;5080094;28;20032;-64
2024/04/06 00:34:31;;;;;;;5.85;3.83;;;;;;;14.80;54.94;100365.09;5078593;28;20348;-65
2024/04/06 00:36:57;;;;;;;6.43;3.88;;;;;;;14.79;54.25;100351.94;5080556;28;20048;-64
2024/04/06 00:39:22;;;;;;;6.47;3.67;;;;;;;14.81;54.04;100353.44;5078601;28;20051;-64
2024/04/06 00:41:48;;;;;;;5.90;3.75;;;;;;;14.76;54.08;100346.97;5079370;28;20039;-64
2024/04/06 00:44:14;;;;;;;6.45;4.03;;;;;;;14.68;54.58;100358.50;5078686;28;20361;-63
2024/04/06 00:46:40;;;;;;;5.25;3.70;;;;;;;14.59;54.89;100357.69;5079613;28;20088;-63
2024/04/06 00:49:07;;;;;;;5.50;3.92;;;;;;;14.58;55.09;100358.72;5078117;28;20033;-64
2024/04/06 00:51:32;;;;;;;5.75;3.92;;;;;;;14.43;55.36;100363.06;5079480;28;20094;-64
2024/04/06 00:53:59;;;;;;;7.00;4.40;;;;;;;14.29;55.65;100350.44;5078584;28;20033;-64
2024/04/06 00:56:24;;;;;;;6.03;3.78;;;;;;;14.16;56.28;100360.78;5079258;28;20120;-64
2024/04/06 00:58:50;;;;;;;5.03;3.70;;;;;;;14.07;56.52;100358.13;5078089;28;20037;-64
2024/04/06 01:01:15;;;;;;;4.18;3.75;;;;;;;14.01;56.78;100356.16;5079429;28;20289;-64
2024/04/06 01:03:41;;;;;;;5.40;3.08;;;;;;;14.13;56.52;100350.47;5078895;28;20044;-64
2024/04/06 01:06:06;;;;;;;5.60;2.92;;;;;;;14.13;56.22;100348.63;5077852;28;20032;-64
2024/04/06 01:08:32;;;;;;;5.15;2.92;;;;;;;14.05;56.37;100343.34;5079550;28;20085;-63
2024/04/06 01:11:00;;;;;;;2.78;2.45;;;;;;;14.03;56.27;100326.69;5078044;28;20032;-64
2024/04/06 01:13:26;;;;;;;3.40;2.40;;;;;;;13.94;56.85;100336.53;5079769;28;20071;-64
2024/04/06 01:15:52;;;;;;;3.75;2.38;;;;;;;13.91;56.97;100325.38;5077797;28;20036;-64
2024/04/06 01:18:17;;;;;;;4.72;2.38;;;;;;;14.02;56.56;100328.53;5078657;28;20032;-63
2024/04/06 01:20:45;;;;;;;4.32;2.22;;;;;;;14.05;56.30;100341.50;5077408;28;20036;-64
2024/04/06 01:23:14;;;;;;;2.28;1.90;;;;;;;14.06;56.31;100335.16;5080059;28;20039;-64
2024/04/06 01:25:40;;;;;;;3.30;2.40;;;;;;;13.97;56.66;100322.03;5077891;28;20059;-64
2024/04/06 01:28:05;;;;;;;4.22;2.20;;;;;;;13.95;56.64;100330.19;5078875;28;20326;-64
2024/04/06 01:30:31;;;;;;;4.43;2.05;;;;;;;13.94;56.87;100325.06;5078033;28;20040;-64
2024/04/06 01:32:57;;;;;;;4.10;2.15;;;;;;;13.89;56.91;100322.91;5078938;28;20058;-63
2024/04/06 01:35:23;;;;;;;4.15;2.30;;;;;;;13.86;57.35;100320.56;5077287;28;20060;-64
2024/04/06 01:37:48;;;;;;;2.60;2.00;;;;;;;13.88;56.58;100323.06;5077847;28;20028;-64
2024/04/06 01:40:14;;;;;;;4.18;1.92;;;;;;;13.82;57.14;100324.56;5078007;28;20112;-64
2024/04/06 01:42:40;;;;;;;2.88;1.77;;;;;;;13.77;56.90;100320.75;5078294;28;20333;-64
2024/04/06 01:45:06;;;;;;;2.60;1.98;;;;;;;13.83;56.95;100314.75;5078128;28;20040;-64
2024/04/06 01:47:32;;;;;;;5.72;2.47;;;;;;;13.76;57.14;100313.78;5076801;28;20380;-64
2024/04/06 01:50:06;;;;;;;5.18;2.03;;;;;;;13.78;57.18;100309.09;5079996;28;20037;-63
2024/04/06 01:52:32;;;;;;;4.60;2.40;;;;;;;13.67;58.20;100311.13;5077504;28;20036;-63
2024/04/06 01:54:59;;;;;;;2.50;2.13;;;;;;;13.65;57.94;100310.47;5077828;28;20099;-64
2024/04/06 01:57:25;;;;;;;3.67;2.20;;;;;;;13.75;58.04;100312.94;5076678;28;20119;-63
2024/04/06 01:59:50;;;;;;;3.67;2.28;;;;;;;13.73;57.03;100313.09;5078379;28;20126;-64
2024/04/06 02:02:16;;;;;;;3.50;2.40;;;;;;;13.89;57.16;100317.56;5077994;28;20036;-64
2024/04/06 02:04:42;;;;;;;6.13;2.35;;;;;;;13.87;56.89;100318.75;5079702;28;20032;-64
2024/04/06 02:07:08;;;;;;;4.00;1.90;;;;;;;13.62;57.86;100328.59;5079047;28;20045;-64
2024/04/06 02:09:33;;;;;;;8.30;3.25;;;;;;;13.62;58.09;100320.59;5077455;28;20053;-64
2024/04/06 02:11:59;;;;;;;6.10;2.00;;;;;;;13.62;57.80;100312.63;5080091;28;20172;-64
2024/04/06 02:14:24;;;;;;;5.30;2.33;;;;;;;13.43;58.23;100324.41;5076281;28;20396;-63
2024/04/06 02:16:51;;;;;;;6.47;2.50;;;;;;;13.32;58.68;100320.25;5074946;28;20036;-64
2024/04/06 02:19:16;;;;;;;5.38;2.00;;;;;;;13.43;58.15;100311.94;5077819;28;20045;-63
2024/04/06 02:21:42;;;;;;;2.47;1.48;;;;;;;13.32;58.58;100317.59;5091693;28;20081;-64
2024/04/06 02:24:07;;;;;;;4.20;2.65;;;;;;;13.37;58.07;100307.28;5098040;28;20077;-64
2024/04/06 02:26:33;;;;;;;6.70;1.67;;;;;;;13.32;58.28;100320.25;5096910;28;20238;-65
2024/04/06 02:28:58;;;;;;;2.60;1.45;;;;;;;13.17;58.52;100313.09;5097607;28;20035;-64
2024/04/06 02:31:24;;;;;;;2.60;1.58;;;;;;;13.21;58.80;100325.91;5096607;28;20040;-64
2024/04/06 02:33:49;;;;;;;4.03;1.83;;;;;;;13.07;59.10;100327.34;5096481;28;20303;-63
2024/04/06 02:36:14;;;;;;;4.35;1.42;;;;;;;13.35;58.93;100319.09;5097514;28;20047;-63
2024/04/06 02:38:42;;;;;;;3.83;1.70;;;;;;;13.50;58.41;100314.75;5096731;28;20043;-64
2024/04/06 02:41:08;;;;;;;4.55;1.67;;;;;;;13.66;57.20;100304.13;5092255;28;20127;-64
2024/04/06 02:43:34;;;;;;;2.28;1.60;;;;;;;13.70;57.37;100293.97;5076416;28;20040;-63
2024/04/06 02:45:59;;;;;;;2.35;1.67;;;;;;;13.60;57.41;100301.31;5077168;28;20068;-63
2024/04/06 02:48:25;;;;;;;3.75;1.88;;;;;;;13.52;58.24;100296.81;5079626;28;20029;-64
2024/04/06 02:50:50;;;;;;;2.03;1.50;;;;;;;13.56;57.69;100294.66;5079874;28;20357;-64
2024/04/06 02:53:16;;;;;;;3.25;1.63;;;;;;;13.49;57.76;100286.50;5081164;28;20087;-64
2024/04/06 02:55:41;;;;;;;2.97;1.83;;;;;;;13.31;57.38;100293.81;5079600;28;20493;-64
2024/04/06 02:58:08;;;;;;;3.33;2.30;;;;;;;13.34;57.69;100302.28;5082028;28;20082;-63
2024/04/06 03:00:35;;;;;;;3.55;2.00;;;;;;;13.33;57.91;100308.59;5080074;28;20036;-63
2024/04/06 03:03:00;;;;;;;2.95;2.20;;;;;;;13.28;58.15;100304.78;5080945;28;20377;-64
2024/04/06 03:05:26;;;;;;;3.33;1.80;;;;;;;13.37;58.08;100309.94;5079868;28;20040;-65
2024/04/06 03:07:51;;;;;;;2.15;1.90;;;;;;;13.42;57.46;100312.94;5080452;28;20032;-64
2024/04/06 03:10:17;;;;;;;4.85;2.20;;;;;;;13.48;57.02;100313.25;5079442;28;20378;-64
2024/04/06 03:12:42;;;;;;;4.75;1.88;;;;;;;13.51;56.77;100312.94;5080280;28;20035;-63
2024/04/06 03:15:08;;;;;;;4.57;2.20;;;;;;;13.50;56.70;100305.94;5080537;28;20040;-65
2024/04/06 03:17:33;;;;;;;2.65;1.92;;;;;;;13.37;57.37;100309.09;5079557;28;20849;-63
2024/04/06 03:19:59;;;;;;;3.65;2.30;;;;;;;13.32;57.56;100308.78;5081894;28;20029;-62
2024/04/06 03:22:24;;;;;;;3.78;1.90;;;;;;;13.29;57.13;100317.91;5079077;28;20032;-63
2024/04/06 03:24:50;;;;;;;3.38;2.33;;;;;;;13.16;57.05;100324.69;5081450;28;20028;-65
2024/04/06 03:27:16;;;;;;;4.32;2.17;;;;;;;13.05;57.60;100320.53;5079486;28;20067;-62
2024/04/06 03:29:41;;;;;;;4.00;2.00;;;;;;;12.93;58.10;100330.63;5081389;28;20040;-63
2024/04/06 03:32:06;;;;;;;2.83;1.67;;;;;;;12.86;59.01;100329.63;5079722;28;20385;-63
2024/04/06 03:34:32;;;;;;;4.35;1.85;;;;;;;12.88;58.96;100324.16;5081568;28;20024;-63
2024/04/06 03:36:58;;;;;;;9.77;2.72;;;;;;;12.92;59.17;100320.16;5080545;28;20237;-63
2024/04/06 03:39:23;;;;;;;8.15;2.60;;;;;;;13.04;58.25;100330.31;5080745;28;20044;-63
2024/04/06 03:41:49;;;;;;;5.90;2.20;;;;;;;13.06;58.42;100328.34;5079847;28;20049;-63
2024/04/06 03:44:14;;;;;;;5.55;2.40;;;;;;;13.11;58.41;100331.34;5080809;28;20073;-63
2024/04/06 03:46:40;;;;;;;3.75;1.98;;;;;;;13.13;58.38;100322.38;5079662;28;20040;-64
2024/04/06 03:49:05;;;;;;;4.30;1.65;;;;;;;13.10;59.16;100328.84;5080091;28;20041;-63
2024/04/06 03:51:30;;;;;;;6.03;2.17;;;;;;;12.98;59.15;100324.81;5079943;28;20037;-64
2024/04/06 03:53:56;;;;;;;5.75;1.77;;;;;;;12.96;59.72;100332.13;5079757;28;20036;-62
2024/04/06 03:56:21;;;;;;;3.88;2.17;;;;;;;12.99;59.38;100327.31;5094619;28;20051;-63
2024/04/06 03:58:47;;;;;;;3.83;1.70;;;;;;;12.96;59.98;100329.47;5079628;28;20082;-63
2024/04/06 04:01:12;;;;;;;2.53;1.73;;;;;;;12.92;60.09;100328.97;5080358;28;20044;-62
2024/04/06 04:03:38;;;;;;;2.65;2.00;;;;;;;12.87;60.44;100333.94;5079470;28;20234;-64
2024/04/06 04:06:04;;;;;;;3.15;1.73;;;;;;;12.76;61.16;100331.59;5080596;28;20036;-64
2024/04/06 04:08:30;;;;;;;1.80;1.70;;;;;;;12.61;62.38;100335.84;5079349;28;20234;-65
2024/04/06 04:10:56;;;;;;;2.67;1.75;;;;;;;12.76;61.67;100334.25;5080794;28;20029;-64
2024/04/06 04:13:23;;;;;;;2.17;1.40;;;;;;;12.83;61.14;100342.41;5079475;28;20036;-63
2024/04/06 04:15:49;;;;;;;2.80;1.50;;;;;;;12.96;60.68;100337.44;5079883;28;20099;-63
2024/04/06 04:18:16;;;;;;;5.72;2.05;;;;;;;12.86;60.85;100344.75;5078493;28;20174;-63
2024/04/06 04:20:41;;;;;;;3.25;2.03;;;;;;;12.66;61.45;100337.03;5079918;28;20105;-65
2024/04/06 04:23:07;;;;;;;3.63;2.30;;;;;;;12.65;62.22;100332.72;5079533;28;20044;-63
2024/04/06 04:25:32;;;;;;;3.25;1.95;;;;;;;12.73;62.03;100338.06;5079812;28;20348;-64
2024/04/06 04:27:59;;;;;;;3.22;2.42;;;;;;;12.85;61.42;100340.41;5079710;28;20343;-63
2024/04/06 04:30:25;;;;;;;2.92;2.30;;;;;;;12.88;61.09;100335.59;5078073;28;20151;-64
2024/04/06 04:32:51;;;;;;;4.60;2.15;;;;;;;12.89;61.81;100349.72;5080490;28;20052;-63
2024/04/06 04:35:17;;;;;;;5.03;2.15;;;;;;;12.87;61.79;100352.56;5079245;28;20103;-63
2024/04/06 04:37:43;;;;;;;4.75;2.70;;;;;;;12.89;61.14;100355.88;5080012;28;20045;-63
2024/04/06 04:40:09;;;;;;;4.60;2.97;;;;;;;12.95;61.44;100357.88;5078494;28;20402;-63
2024/04/06 04:42:35;;;;;;;7.43;4.00;;;;;;;13.07;60.44;100358.41;5079194;28;20040;-64
2024/04/06 04:45:12;;;;;;;6.70;3.78;;;;;;;13.18;59.72;100355.47;5078917;28;20207;-64
2024/04/06 04:47:38;;;;;;;4.70;3.30;;;;;;;13.17;59.67;100358.28;5079559;28;20035;-65
2024/04/06 04:50:04;;;;;;;6.63;3.60;;;;;;;13.18;59.71;100359.97;5078846;28;20037;-64
2024/04/06 04:52:30;;;;;;;9.77;3.22;;;;;;;13.21;60.02;100362.28;5079885;28;20107;-65
2024/04/06 04:54:56;;;;;;;6.47;2.55;;;;;;;13.26;60.12;100365.28;5078704;28;20033;-64
2024/04/06 04:57:22;;;;;;;8.60;2.90;;;;;;;13.39;59.37;100361.16;5079697;28;20426;-63
2024/04/06 04:59:47;;;;;;;7.32;4.00;;;;;;;13.48;59.60;100374.44;5078314;28;20032;-63
2024/04/06 05:02:14;;;;;;;8.38;4.90;;;;;;;13.57;59.18;100369.00;5078586;28;20039;-64
2024/04/06 05:04:39;;;;;;;10.80;5.22;;;;;;;13.70;58.84;100372.00;5079586;28;20345;-64
2024/04/06 05:07:04;;;;;;;9.50;5.35;;;;;;;13.81;58.76;100372.66;5078513;28;20044;-64
2024/04/06 05:09:30;;;;;;;16.05;6.05;;;;;;;13.80;58.31;100355.03;5079437;28;20315;-63
2024/04/06 05:11:55;;;;;;;13.40;5.85;;;;;;;13.91;58.40;100368.81;5076940;28;20033;-63
2024/04/06 05:14:21;;;;;;;14.73;5.50;;;;;;;13.89;58.10;100364.66;5079515;28;20047;-63
2024/04/06 05:16:46;;;;;;;7.72;3.70;;;;;;;14.00;58.00;100364.31;5077643;28;20216;-62
2024/04/06 05:19:12;;;;;;;19.88;4.30;;;;;;;14.11;57.73;100363.97;5079303;28;20078;-62
2024/04/06 05:21:37;;;;;;;7.50;3.60;;;;;;;14.11;59.50;100369.28;5076978;28;20052;-63
2024/04/06 05:24:03;;;;;;;11.88;3.67;;;;;;;14.22;59.10;100362.75;5078691;28;20037;-63
2024/04/06 05:26:29;;;;;;;22.13;4.90;;;;;;;14.23;59.01;100367.91;5077674;28;20040;-63
2024/04/06 05:28:54;;;;;;;9.60;3.72;;;;;;;14.24;58.83;100363.41;5079024;28;20334;-63
2024/04/06 05:31:20;;;;;;;3.53;2.60;;;;;;;14.27;58.98;100363.09;5077310;28;20044;-64
2024/04/06 05:33:45;;;;;;;5.65;2.45;;;;;;;14.22;59.07;100352.94;5078605;28;20035;-64
2024/04/06 05:36:11;;;;;;;8.13;2.63;;;;;;;14.28;58.91;100354.09;5079674;28;20363;-64
2024/04/06 05:38:37;;;;;;;6.50;2.65;;;;;;;14.32;58.25;100358.06;5079993;28;20096;-64
2024/04/06 05:41:02;;;;;;;6.80;2.78;;;;;;;14.54;57.85;100359.19;5078799;28;20079;-65
2024/04/06 05:43:29;;;;;;;19.67;4.45;;;;;;;14.95;57.36;100362.53;5098041;28;20055;-65
2024/04/06 05:46:00;;;;;;;8.82;3.55;;;;;;;15.35;55.36;100364.09;5097809;28;20036;-62
2024/04/06 05:48:26;;;;;;;5.75;2.83;;;;;;;15.48;54.12;100367.00;5090275;28;20058;-63
2024/04/06 05:50:52;;;;;;;9.63;3.15;;;;;;;15.79;52.98;100366.16;5076126;28;20040;-62
2024/04/06 05:53:17;;;;;;;17.75;3.85;;;;;;;15.93;52.71;100376.03;5077410;28;20040;-64
2024/04/06 05:55:43;;;;;;;8.02;4.03;;;;;;;16.23;52.28;100366.22;5077164;28;20048;-63
2024/04/06 05:58:08;;;;;;;7.28;3.65;;;;;;;16.47;50.94;100368.59;5078315;28;20064;-64
2024/04/06 06:00:34;;;;;;;7.20;2.88;;;;;;;16.80;49.91;100376.28;5096770;28;20043;-62
2024/04/06 06:02:59;;;;;;;4.90;2.42;;;;;;;16.88;49.07;100373.50;5098381;28;20040;-63
2024/04/06 06:05:25;;;;;;;6.25;2.58;;;;;;;16.81;48.22;100373.44;5077906;28;20222;-63
2024/04/06 06:07:50;;;;;;;3.85;2.17;;;;;;;16.63;49.29;100380.94;5078253;28;20050;-62
2024/04/06 06:10:16;;;;;;;2.80;2.58;;;;;;;16.41;50.89;100379.22;5076631;28;20192;-63
2024/04/06 06:12:42;;;;;;;4.28;2.97;;;;;;;16.23;51.14;100384.91;5077378;28;20043;-62
2024/04/06 06:15:07;;;;;;;4.15;2.65;;;;;;;16.13;52.16;100385.19;5077104;28;20045;-62
2024/04/06 06:17:33;;;;;;;7.50;3.85;;;;;;;16.21;52.60;100389.63;5077395;28;20071;-63
2024/04/06 06:19:58;;;;;;;5.28;3.15;;;;;;;16.08;53.33;100386.75;5086576;28;20222;-63
2024/04/06 06:22:24;;;;;;;5.88;3.28;;;;;;;16.28;53.00;100387.88;5097439;28;20039;-62
2024/04/06 06:24:50;;;;;;;6.13;3.92;;;;;;;16.49;52.47;100376.44;5094193;28;20025;-63
2024/04/06 06:27:16;;;;;;;6.07;2.80;;;;;;;16.48;52.21;100370.28;5080953;28;20042;-62
2024/04/06 06:29:41;;;;;;;7.93;2.50;;;;;;;16.65;51.58;100370.97;5085611;28;20280;-63
2024/04/06 06:32:07;;;;;;;4.78;2.47;;;;;;;16.76;51.20;100365.13;5100819;28;20052;-64
2024/04/06 06:34:33;;;;;;;4.30;2.45;;;;;;;16.78;51.22;100364.94;5100709;28;20036;-63
2024/04/06 06:36:58;;;;;;;3.38;2.15;;;;;;;16.61;51.15;100365.09;5080354;28;20354;-62
2024/04/06 06:39:24;;;;;;;4.97;2.50;;;;;;;16.74;51.02;100359.16;5081086;28;20352;-63
2024/04/06 06:41:52;;;;;;;7.93;3.28;;;;;;;16.67;51.78;100347.53;5099527;28;20040;-63
2024/04/06 06:44:18;;;;;;;7.80;3.38;;;;;;;16.45;54.26;100367.97;5102098;28;20039;-63
2024/04/06 06:46:43;;;;;;;5.82;3.20;;;;;;;16.40;54.75;100359.66;5083888;28;20059;-63
2024/04/06 06:49:10;;;;;;;8.45;2.83;;;;;;;16.24;56.24;100366.03;5081201;28;20044;-62
2024/04/06 06:51:36;;;;;;;5.32;2.45;;;;;;;16.21;56.59;100363.72;5092918;28;20044;-62
2024/04/06 06:54:02;;;;;;;5.00;2.58;;;;;;;16.52;56.16;100368.06;5100637;28;20042;-62
2024/04/06 06:56:28;;;;;;;11.65;4.03;;;;;;;16.88;54.65;100377.00;5089241;28;20072;-62
2024/04/06 06:58:53;;;;;;;11.63;3.03;;;;;;;17.32;53.54;100380.59;5079409;28;20353;-62
2024/04/06 07:01:19;;;;;;;7.18;2.88;;;;;;;17.88;52.33;100383.41;5080433;28;20247;-62
2024/04/06 07:03:44;;;;;;;5.45;3.13;;;;;;;18.40;50.80;100374.91;5079847;28;20035;-63
2024/04/06 07:06:12;;;;;;;4.95;2.58;;;;;;;18.84;48.50;100379.13;5084803;28;20047;-63
2024/04/06 07:08:42;;;;;;;4.15;2.28;;;;;;;19.07;46.20;100380.44;5100248;28;20089;-63
2024/04/06 07:11:08;;;;;;;5.78;2.47;;;;;;;19.43;45.83;100381.97;5100824;28;20040;-63
2024/04/06 07:13:33;;;;;;;4.88;2.85;;;;;;;19.47;45.12;100388.59;5100304;28;20107;-63
2024/04/06 07:16:09;;;;;;;5.43;2.60;;;;;;;19.50;45.61;100381.97;5101014;28;20348;-63
2024/04/06 07:18:38;;;;;;;2.97;2.10;;;;;;;19.94;44.72;100387.63;5079747;28;20259;-63
2024/04/06 07:21:08;;;;;;;2.67;2.30;;;;;;;20.31;43.75;100379.94;5080940;28;20040;-63
2024/04/06 07:23:33;;;;;;;4.65;2.03;;;;;;;20.49;43.26;100385.53;5080216;28;20048;-63
2024/04/06 07:25:59;;;;;;;6.97;2.53;;;;;;;20.56;42.52;100377.44;5081053;28;20039;-63
2024/04/06 07:28:24;;;;;;;4.47;2.33;;;;;;;20.56;42.34;100377.44;5078785;28;20271;-62
2024/04/06 07:30:50;;;;;;;5.35;2.42;;;;;;;20.70;42.57;100379.88;5080360;28;20039;-62
2024/04/06 07:33:15;;;;;;;6.50;2.42;;;;;;;20.90;42.22;100374.44;5093032;28;20036;-63
2024/04/06 07:35:40;;;;;;;4.85;2.05;;;;;;;21.18;42.46;100381.34;5098822;28;20048;-62
2024/04/06 07:38:06;;;;;;;4.35;2.10;;;;;;;20.74;41.44;100377.56;5099537;28;20036;-63
2024/04/06 07:40:32;;;;;;;6.85;1.73;;;;;;;20.74;42.30;100377.56;5100332;28;20052;-62
2024/04/06 07:42:58;;;;;;;2.67;1.60;;;;;;;20.69;42.39;100380.06;5092157;28;20028;-63
2024/04/06 07:45:23;;;;;;;4.60;1.80;;;;;;;20.38;42.57;100381.59;5079549;28;20085;-63
2024/04/06 07:47:49;;;;;;;3.28;1.40;;;;;;;20.39;43.35;100375.19;5079345;28;20234;-62
2024/04/06 07:50:15;;;;;;;3.25;1.30;;;;;;;20.47;43.14;100360.69;5078837;28;20035;-63
2024/04/06 07:52:41;;;;;;;2.88;1.30;;;;;;;20.68;42.48;100375.72;5079970;28;20051;-63
2024/04/06 07:55:06;;;;;;;3.42;1.85;;;;;;;20.62;45.08;100369.34;5078923;28;20319;-63
2024/04/06 07:57:32;;;;;;;4.40;1.90;;;;;;;20.74;45.47;100364.13;5079926;28;20040;-63
2024/04/06 07:59:58;;;;;;;3.85;1.55;;;;;;;20.55;44.88;100362.31;5079766;28;20067;-62
2024/04/06 08:02:23;;;;;;;3.65;1.73;;;;;;;20.68;44.49;100363.09;5080449;28;20039;-63
2024/04/06 08:04:50;;;;;;;3.85;1.67;;;;;;;21.15;43.68;100358.34;5078763;28;20319;-62
2024/04/06 08:07:16;;;;;;;2.40;1.60;;;;;;;21.54;42.46;100360.00;5079207;28;20033;-63
2024/04/06 08:09:41;;;;;;;3.92;1.50;;;;;;;21.51;41.92;100356.91;5079034;28;20106;-63
2024/04/06 08:12:07;;;;;;;1.55;1.45;;;;;;;21.34;41.57;100352.03;5079034;28;20040;-63
2024/04/06 08:14:33;;;;;;;2.25;2.05;;;;;;;21.54;41.30;100356.47;5078612;28;20036;-63
2024/04/06 08:16:58;;;;;;;3.65;1.58;;;;;;;21.90;41.74;100351.22;5078679;28;20072;-63
2024/04/06 08:19:24;;;;;;;4.03;1.70;;;;;;;22.15;39.39;100351.22;5078930;28;20036;-63
2024/04/06 08:21:49;;;;;;;4.90;1.90;;;;;;;22.36;38.74;100347.25;5079238;28;20107;-63
2024/04/06 08:24:17;;;;;;;2.30;1.45;;;;;;;22.63;37.82;100345.09;5078837;28;20028;-63
2024/04/06 08:26:43;;;;;;;2.80;1.70;;;;;;;22.72;38.51;100341.03;5078199;28;20051;-63
2024/04/06 08:29:09;;;;;;;5.45;1.75;;;;;;;22.82;38.19;100344.03;5080339;28;20074;-63
2024/04/06 08:31:34;;;;;;;2.10;1.65;;;;;;;22.80;37.88;100345.31;5098217;28;20117;-64
2024/04/06 08:34:00;;;;;;;2.60;1.73;;;;;;;22.91;38.01;100334.59;5100160;28;20055;-63
2024/04/06 08:36:25;;;;;;;2.72;1.90;;;;;;;23.04;38.62;100332.78;5097930;28;20320;-64
2024/04/06 08:38:51;;;;;;;5.75;1.98;;;;;;;23.09;37.01;100328.34;5098725;28;20047;-63
2024/04/06 08:41:18;;;;;;;6.03;2.30;;;;;;;23.08;36.92;100317.75;5097485;28;20032;-64
2024/04/06 08:43:44;;;;;;;8.93;2.55;;;;;;;23.07;37.63;100322.34;5099095;28;20111;-62
2024/04/06 08:46:10;;;;;;;3.58;2.08;;;;;;;22.87;37.13;100316.34;5083778;28;20048;-63
2024/04/06 08:48:36;;;;;;;3.95;2.13;;;;;;;22.80;36.94;100316.44;5077921;28;20651;-63
2024/04/06 08:51:07;;;;;;;3.25;1.70;;;;;;;22.90;35.95;100316.75;5088925;28;20051;-63
2024/04/06 08:53:33;;;;;;;2.35;1.75;;;;;;;23.01;36.22;100301.66;5099100;28;20099;-63
2024/04/06 08:56:08;;;;;;;2.80;1.75;;;;;;;23.14;36.22;100306.03;5098182;28;20052;-63
2024/04/06 08:58:34;;;;;;;2.00;1.60;;;;;;;23.32;36.65;100300.56;5098673;28;20329;-63
2024/04/06 09:01:03;;;;;;;1.63;1.52;;;;;;;23.40;36.11;100305.63;5091666;28;20100;-63
2024/04/06 09:03:31;;;;;;;2.80;1.67;;;;;;;23.38;36.15;100291.53;5078410;28;20237;-63
2024/04/06 09:05:57;;;;;;;3.47;2.00;;;;;;;23.38;36.10;100294.22;5077942;28;20395;-63
2024/04/06 09:08:23;;;;;;;2.67;1.75;;;;;;;23.56;36.72;100288.75;5078100;28;20044;-63
2024/04/06 09:10:54;;;;;;;3.90;1.70;;;;;;;23.67;35.87;100281.72;5078671;28;20347;-63
2024/04/06 09:13:20;;;;;;;5.97;1.70;;;;;;;23.56;35.79;100290.63;5079911;28;20036;-63
2024/04/06 09:15:46;;;;;;;1.88;1.52;;;;;;;23.49;36.05;100279.91;5076766;28;20048;-64
2024/04/06 09:18:12;;;;;;;1.65;1.55;;;;;;;23.60;36.60;100277.47;5078629;28;20059;-63
2024/04/06 09:20:38;;;;;;;2.85;1.65;;;;;;;23.62;37.00;100278.06;5078515;28;20035;-63
2024/04/06 09:23:05;;;;;;;3.15;1.58;;;;;;;23.62;35.95;100276.19;5079080;28;20036;-63
2024/04/06 09:25:31;;;;;;;4.25;2.00;;;;;;;23.72;35.54;100273.72;5077591;28;20067;-63
2024/04/06 09:27:56;;;;;;;3.08;1.50;;;;;;;23.78;35.92;100270.06;5077843;28;20032;-64
2024/04/06 09:30:37;;;;;;;3.45;1.75;;;;;;;23.81;34.88;100269.59;5077677;28;20087;-62
2024/04/06 09:33:03;;;;;;;6.20;1.65;;;;;;;23.80;34.72;100269.84;5078501;28;20059;-63
2024/04/06 09:35:30;;;;;;;3.17;1.83;;;;;;;23.79;36.03;100268.19;5077191;28;20223;-64
2024/04/06 09:37:55;;;;;;;4.00;1.83;;;;;;;23.81;35.06;100266.88;5078271;28;20032;-63
2024/04/06 09:40:23;;;;;;;3.78;1.60;;;;;;;23.81;35.19;100263.38;5076953;28;20059;-63
2024/04/06 09:42:49;;;;;;;4.03;2.33;;;;;;;23.85;34.00;100251.84;5077855;28;20096;-63
2024/04/06 09:45:15;;;;;;;5.75;2.35;;;;;;;23.86;34.14;100247.25;5077398;28;20044;-63
2024/04/06 09:47:41;;;;;;;3.78;1.83;;;;;;;23.84;34.81;100244.78;5077684;28;20428;-63
2024/04/06 09:50:07;;;;;;;4.10;2.90;;;;;;;23.92;34.91;100232.78;5077922;28;20052;-63
2024/04/06 09:52:35;;;;;;;3.10;2.80;;;;;;;23.85;34.57;100235.63;5075832;28;20142;-63
2024/04/06 09:55:01;;;;;;;5.47;3.28;;;;;;;23.84;34.62;100238.56;5078535;28;20032;-63
2024/04/06 09:57:26;;;;;;;5.10;2.75;;;;;;;23.86;35.26;100231.03;5076287;28;20234;-64
2024/04/06 10:00:07;;;;;;;2.97;2.40;;;;;;;23.91;35.03;100230.31;5078806;28;20149;-63
2024/04/06 10:02:33;;;;;;;4.07;1.73;;;;;;;23.87;34.82;100225.38;5076829;28;20071;-63
2024/04/06 10:05:01;;;;;;;8.48;1.92;;;;;;;23.92;35.29;100232.78;5078601;28;20036;-63
2024/04/06 10:07:28;;;;;;;5.07;1.80;;;;;;;23.98;35.19;100220.22;5076632;28;20242;-64
2024/04/06 10:10:04;;;;;;;4.50;1.65;;;;;;;23.97;35.16;100216.69;5079240;28;20029;-64
2024/04/06 10:12:37;;;;;;;4.15;1.42;;;;;;;24.00;35.30;100218.91;5077324;28;20036;-63
2024/04/06 10:15:08;;;;;;;2.15;1.40;;;;;;;24.05;34.15;100216.31;5078721;28;20029;-63
2024/04/06 10:17:52;;;;;;;2.13;1.35;;;;;;;24.07;34.90;100218.78;5077372;28;20107;-63
2024/04/06 10:20:22;;;;;;;3.10;1.65;;;;;;;24.11;35.57;100204.53;5078236;28;20398;-63
2024/04/06 10:22:57;;;;;;;2.08;1.40;;;;;;;24.06;34.46;100199.03;5076806;28;20048;-63
2024/04/06 10:25:30;;;;;;;2.53;1.30;;;;;;;24.14;34.78;100200.53;5076704;28;20047;-63
2024/04/06 10:28:00;;;;;;;4.00;1.60;;;;;;;24.19;34.28;100195.22;5076907;28;20033;-63
2024/04/06 10:30:26;;;;;;;4.30;1.60;;;;;;;24.26;33.86;100192.38;5077925;28;20037;-64
2024/04/06 10:32:52;;;;;;;2.42;1.58;;;;;;;24.29;34.26;100184.63;5077116;28;20262;-63
2024/04/06 10:35:18;;;;;;;2.22;1.65;;;;;;;24.26;34.56;100181.56;5078327;28;20143;-63
2024/04/06 10:37:46;;;;;;;5.53;1.73;;;;;;;24.36;33.50;100184.50;5077263;28;20201;-63
2024/04/06 10:40:13;;;;;;;1.65;1.27;;;;;;;24.39;33.82;100178.59;5077178;28;20129;-63
2024/04/06 10:42:40;;;;;;;2.67;1.15;;;;;;;24.36;33.10;100179.91;5076795;28;20028;-63
2024/04/06 10:45:08;;;;;;;3.42;1.60;;;;;;;24.42;33.08;100170.81;5077148;28;20040;-63
2024/04/06 10:47:34;;;;;;;3.55;1.27;;;;;;;24.42;32.88;100164.56;5077613;28;20249;-64
2024/04/06 10:49:59;;;;;;;2.30;1.08;;;;;;;24.43;32.44;100158.09;5077756;28;20024;-63
2024/04/06 10:52:25;;;;;;;2.20;1.30;;;;;;;24.48;31.72;100158.19;5078609;28;20086;-63
2024/04/06 10:54:52;;;;;;;7.45;2.25;;;;;;;24.51;32.82;100149.59;5077167;28;20040;-64
2024/04/06 10:57:19;;;;;;;2.17;1.33;;;;;;;24.50;32.51;100147.94;5078554;28;20044;-64
2024/04/06 10:59:45;;;;;;;5.07;1.30;;;;;;;24.55;32.42;100148.03;5077289;28;20043;-63
2024/04/06 11:02:11;;;;;;;1.40;1.00;;;;;;;24.59;32.22;100141.06;5077747;28;20346;-63
2024/04/06 11:04:40;;;;;;;2.42;1.10;;;;;;;24.63;32.70;100131.38;5076710;28;20334;-63
2024/04/06 11:07:06;;;;;;;3.03;1.42;;;;;;;24.59;31.73;100132.13;5077621;28;20342;-63
2024/04/06 11:09:33;;;;;;;2.17;1.10;;;;;;;24.57;31.25;100126.13;5078243;28;20044;-63
2024/04/06 11:11:58;;;;;;;1.73;1.00;;;;;;;24.50;32.38;100120.88;5080802;28;20460;-63
2024/04/06 11:14:25;;;;;;;1.80;0.98;;;;;;;24.56;33.33;100117.19;5079916;28;20040;-63
2024/04/06 11:16:52;;;;;;;3.40;1.15;;;;;;;24.64;33.07;100110.53;5081217;28;20037;-63
2024/04/06 11:19:18;;;;;;;1.10;1.00;;;;;;;24.73;31.26;100109.91;5080376;28;20044;-63